Time,TemperatureF,DewpointF,PressureIn,WindDirection,WindDirectionDegrees,WindSpeedMPH,WindSpeedGustMPH,Humidity,HourlyPrecipIn,Conditions,Clouds,dailyrainin,SoftwareType,DateUTC
2013-03-10 00:06:00,29.4,26.0,30.32,West,269,0.0,1.0,87,0.00,,,0.00,weatherlink.com 1.10,2013-03-10 05:06:00,
2013-03-10 00:21:00,29.2,26.0,30.32,WSW,252,0.0,1.0,88,0.00,,,0.00,weatherlink.com 1.10,2013-03-10 05:21:00,
2013-03-10 00:36:00,28.9,26.0,30.31,WSW,252,0.0,1.0,89,0.00,,,0.00,weatherlink.com 1.10,2013-03-10 05:36:00,
2013-03-10 00:51:00,28.6,26.0,30.32,WSW,251,0.0,0.0,90,0.00,,,0.00,weatherlink.com 1.10,2013-03-10 05:51:00,
2013-03-10 01:06:00,28.3,26.0,30.32,WSW,252,0.0,0.0,89,0.00,,,0.00,weatherlink.com 1.10,2013-03-10 06:06:00,
2013-03-10 01:21:00,28.3,26.0,30.31,WSW,251,0.0,0.0,91,0.00,,,0.00,weatherlink.com 1.10,2013-03-10 06:21:00,
2013-03-10 01:36:00,27.9,25.0,30.31,WSW,245,0.0,1.0,89,0.00,,,0.00,weatherlink.com 1.10,2013-03-10 06:36:00,
2013-03-10 01:51:00,27.7,25.0,30.31,WSW,246,1.0,1.0,89,0.00,,,0.00,weatherlink.com 1.10,2013-03-10 06:51:00,
2013-03-10 03:06:00,28.2,26.0,30.30,WSW,246,0.0,1.0,91,0.00,,,0.00,weatherlink.com 1.10,2013-03-10 07:06:00,
2013-03-10 03:21:00,28.1,26.0,30.30,WSW,246,0.0,0.0,90,0.00,,,0.00,weatherlink.com 1.10,2013-03-10 07:21:00,
2013-03-10 03:37:00,28.2,26.0,30.30,WSW,246,0.0,0.0,90,0.00,,,0.00,weatherlink.com 1.10,2013-03-10 07:37:00,
2013-03-10 03:52:00,27.7,25.0,30.29,WSW,247,0.0,0.0,90,0.00,,,0.00,weatherlink.com 1.10,2013-03-10 07:52:00,
2013-03-10 04:07:00,27.4,25.0,30.29,SW,233,0.0,1.0,90,0.00,,,0.00,weatherlink.com 1.10,2013-03-10 08:07:00,
2013-03-10 04:22:00,27.1,25.0,30.28,SW,233,0.0,1.0,91,0.00,,,0.00,weatherlink.com 1.10,2013-03-10 08:22:00,
2013-03-10 04:37:00,27.0,25.0,30.29,West,263,0.0,1.0,91,0.00,,,0.00,weatherlink.com 1.10,2013-03-10 08:37:00,
2013-03-10 04:52:00,27.0,25.0,30.29,WSW,243,0.0,1.0,90,0.00,,,0.00,weatherlink.com 1.10,2013-03-10 08:52:00,
2013-03-10 05:07:00,26.9,25.0,30.29,WSW,243,0.0,0.0,91,0.00,,,0.00,weatherlink.com 1.10,2013-03-10 09:07:00,
2013-03-10 05:22:00,26.9,25.0,30.29,SW,235,0.0,1.0,92,0.00,,,0.00,weatherlink.com 1.10,2013-03-10 09:22:00,
2013-03-10 05:37:00,27.1,25.0,30.29,SSE,161,0.0,1.0,92,0.00,,,0.00,weatherlink.com 1.10,2013-03-10 09:37:00,
2013-03-10 05:52:00,26.9,25.0,30.29,SSE,160,0.0,0.0,92,0.00,,,0.00,weatherlink.com 1.10,2013-03-10 09:52:00,
2013-03-10 06:07:00,26.9,25.0,30.29,SSE,161,0.0,0.0,92,0.00,,,0.00,weatherlink.com 1.10,2013-03-10 10:07:00,
2013-03-10 06:22:00,26.6,24.0,30.29,WSW,251,0.0,1.0,91,0.00,,,0.00,weatherlink.com 1.10,2013-03-10 10:22:00,
2013-03-10 06:37:00,26.4,24.0,30.29,WSW,250,0.0,1.0,92,0.00,,,0.00,weatherlink.com 1.10,2013-03-10 10:37:00,
2013-03-10 06:52:00,26.6,25.0,30.29,WSW,250,0.0,0.0,93,0.00,,,0.00,weatherlink.com 1.10,2013-03-10 10:52:00,
2013-03-10 07:07:00,26.3,25.0,30.28,South,170,0.0,2.0,93,0.00,,,0.00,weatherlink.com 1.10,2013-03-10 11:07:00,
2013-03-10 07:22:00,26.1,24.0,30.29,WSW,248,0.0,1.0,92,0.00,,,0.00,weatherlink.com 1.10,2013-03-10 11:22:00,
2013-03-10 07:37:00,26.4,25.0,30.30,WSW,248,0.0,1.0,93,0.00,,,0.00,weatherlink.com 1.10,2013-03-10 11:37:00,
2013-03-10 07:52:00,26.6,24.0,30.30,WSW,240,0.0,1.0,91,0.00,,,0.00,weatherlink.com 1.10,2013-03-10 11:52:00,
2013-03-10 08:07:00,28.3,26.0,30.30,WSW,246,0.0,0.0,91,0.00,,,0.00,weatherlink.com 1.10,2013-03-10 12:07:00,
2013-03-10 08:22:00,30.5,27.0,30.31,WSW,243,0.0,0.0,87,0.00,,,0.00,weatherlink.com 1.10,2013-03-10 12:22:00,
2013-03-10 08:37:00,32.2,28.0,30.31,SW,231,0.0,1.0,84,0.00,,,0.00,weatherlink.com 1.10,2013-03-10 12:37:00,
2013-03-10 08:52:00,34.1,28.0,30.31,SW,232,0.0,1.0,79,0.00,,,0.00,weatherlink.com 1.10,2013-03-10 12:52:00,
2013-03-10 09:07:00,35.0,28.0,30.31,SW,229,0.0,1.0,77,0.00,,,0.00,weatherlink.com 1.10,2013-03-10 13:07:00,
2013-03-10 09:22:00,35.9,30.0,30.31,SE,127,0.0,1.0,78,0.00,,,0.00,weatherlink.com 1.10,2013-03-10 13:22:00,
2013-03-10 09:37:00,35.7,29.0,30.31,SE,139,1.0,2.0,77,0.00,,,0.00,weatherlink.com 1.10,2013-03-10 13:37:00,
2013-03-10 09:52:00,36.2,29.0,30.31,East,84,0.0,2.0,74,0.00,,,0.00,weatherlink.com 1.10,2013-03-10 13:52:00,
2013-03-10 10:07:00,39.3,30.0,30.31,ESE,113,1.0,1.0,69,0.00,,,0.00,weatherlink.com 1.10,2013-03-10 14:07:00,
2013-03-10 10:22:00,40.5,32.0,30.30,East,96,1.0,1.0,71,0.00,,,0.00,weatherlink.com 1.10,2013-03-10 14:22:00,
2013-03-10 10:37:00,42.2,33.0,30.30,East,101,2.0,3.0,69,0.00,,,0.00,weatherlink.com 1.10,2013-03-10 14:37:00,
2013-03-10 10:52:00,44.8,33.0,30.30,SE,136,4.0,7.0,64,0.00,,,0.00,weatherlink.com 1.10,2013-03-10 14:52:00,
2013-03-10 11:08:00,48.3,36.0,30.31,SE,141,0.0,6.0,62,0.00,,,0.00,weatherlink.com 1.10,2013-03-10 15:08:00,
2013-03-10 11:23:00,50.5,32.0,30.30,SE,129,7.0,7.0,50,0.00,,,0.00,weatherlink.com 1.10,2013-03-10 15:23:00,
2013-03-10 11:38:00,52.2,33.0,30.30,SE,132,8.0,11.0,48,0.00,,,0.00,weatherlink.com 1.10,2013-03-10 15:38:00,
2013-03-10 11:53:00,54.3,30.0,30.29,SW,229,6.0,13.0,39,0.00,,,0.00,weatherlink.com 1.10,2013-03-10 15:53:00,
2013-03-10 12:08:00,55.8,30.0,30.28,South,174,6.0,10.0,37,0.00,,,0.00,weatherlink.com 1.10,2013-03-10 16:08:00,
2013-03-10 12:23:00,56.2,28.0,30.28,South,176,8.0,14.0,34,0.00,,,0.00,weatherlink.com 1.10,2013-03-10 16:23:00,
2013-03-10 12:38:00,56.1,30.0,30.28,SSW,203,5.0,11.0,37,0.00,,,0.00,weatherlink.com 1.10,2013-03-10 16:38:00,
2013-03-10 12:53:00,56.3,32.0,30.27,SE,129,9.0,12.0,40,0.00,,,0.00,weatherlink.com 1.10,2013-03-10 16:53:00,
2013-03-10 13:08:00,57.3,32.0,30.27,SE,130,7.0,9.0,39,0.00,,,0.00,weatherlink.com 1.10,2013-03-10 17:08:00,
2013-03-10 13:23:00,57.3,30.0,30.26,SSE,150,11.0,14.0,36,0.00,,,0.00,weatherlink.com 1.10,2013-03-10 17:23:00,
2013-03-10 13:38:00,56.7,32.0,30.25,SE,131,7.0,16.0,40,0.00,,,0.00,weatherlink.com 1.10,2013-03-10 17:38:00,
2013-03-10 13:53:00,56.7,32.0,30.24,SE,136,6.0,14.0,39,0.00,,,0.00,weatherlink.com 1.10,2013-03-10 17:53:00,
2013-03-10 14:08:00,57.2,33.0,30.23,SSE,155,8.0,15.0,40,0.00,,,0.00,weatherlink.com 1.10,2013-03-10 18:08:00,
2013-03-10 14:23:00,58.3,33.0,30.23,SE,129,14.0,14.0,38,0.00,,,0.00,weatherlink.com 1.10,2013-03-10 18:23:00,
2013-03-10 14:38:00,58.9,32.0,30.23,SSE,162,6.0,14.0,36,0.00,,,0.00,weatherlink.com 1.10,2013-03-10 18:38:00,
2013-03-10 14:54:00,60.0,30.0,30.23,SW,218,6.0,10.0,32,0.00,,,0.00,weatherlink.com 1.10,2013-03-10 18:54:00,
2013-03-10 15:08:00,60.2,32.0,30.22,SSE,163,7.0,15.0,35,0.00,,,0.00,weatherlink.com 1.10,2013-03-10 19:08:00,
2013-03-10 15:23:00,59.7,32.0,30.21,SE,128,9.0,15.0,35,0.00,,,0.00,weatherlink.com 1.10,2013-03-10 19:23:00,
2013-03-10 15:38:00,60.2,32.0,30.21,South,169,9.0,16.0,34,0.00,,,0.00,weatherlink.com 1.10,2013-03-10 19:38:00,
2013-03-10 15:53:00,60.8,33.0,30.21,SE,125,7.0,16.0,35,0.00,,,0.00,weatherlink.com 1.10,2013-03-10 19:53:00,
2013-03-10 16:08:00,60.0,32.0,30.21,SSE,156,7.0,17.0,35,0.00,,,0.00,weatherlink.com 1.10,2013-03-10 20:08:00,
2013-03-10 16:23:00,60.6,30.0,30.20,SSE,158,11.0,17.0,32,0.00,,,0.00,weatherlink.com 1.10,2013-03-10 20:23:00,
2013-03-10 16:38:00,61.2,31.0,30.20,SW,236,6.0,13.0,32,0.00,,,0.00,weatherlink.com 1.10,2013-03-10 20:38:00,
2013-03-10 16:53:00,62.4,30.0,30.19,SSE,160,10.0,13.0,29,0.00,,,0.00,weatherlink.com 1.10,2013-03-10 20:53:00,
2013-03-10 17:08:00,62.5,32.0,30.18,South,169,7.0,10.0,32,0.00,,,0.00,weatherlink.com 1.10,2013-03-10 21:08:00,
2013-03-10 17:24:00,62.0,31.0,30.17,SSE,153,7.0,16.0,31,0.00,,,0.00,weatherlink.com 1.10,2013-03-10 21:24:00,
2013-03-10 17:39:00,62.3,30.0,30.18,South,176,3.0,15.0,30,0.00,,,0.00,weatherlink.com 1.10,2013-03-10 21:39:00,
2013-03-10 17:54:00,61.7,30.0,30.18,SW,232,4.0,10.0,30,0.00,,,0.00,weatherlink.com 1.10,2013-03-10 21:54:00,
2013-03-10 18:09:00,61.0,30.0,30.17,SE,131,3.0,11.0,31,0.00,,,0.00,weatherlink.com 1.10,2013-03-10 22:09:00,
2013-03-10 18:24:00,60.5,30.0,30.18,SSE,148,4.0,9.0,32,0.00,,,0.00,weatherlink.com 1.10,2013-03-10 22:24:00,
2013-03-10 18:39:00,60.0,31.0,30.18,SSE,156,6.0,9.0,33,0.00,,,0.00,weatherlink.com 1.10,2013-03-10 22:39:00,
2013-03-10 18:54:00,59.3,29.0,30.20,SSE,165,5.0,10.0,32,0.00,,,0.00,weatherlink.com 1.10,2013-03-10 22:54:00,
2013-03-10 19:09:00,58.2,30.0,30.20,SSE,159,4.0,7.0,34,0.00,,,0.00,weatherlink.com 1.10,2013-03-10 23:09:00,
2013-03-10 19:24:00,57.7,30.0,30.20,South,169,2.0,7.0,35,0.00,,,0.00,weatherlink.com 1.10,2013-03-10 23:24:00,
2013-03-10 19:39:00,56.3,29.0,30.20,SSE,148,4.0,5.0,36,0.00,,,0.00,weatherlink.com 1.10,2013-03-10 23:39:00,
2013-03-10 19:54:00,55.9,30.0,30.20,SSE,160,4.0,7.0,37,0.00,,,0.00,weatherlink.com 1.10,2013-03-10 23:54:00,
2013-03-10 20:09:00,55.1,30.0,30.19,SE,146,4.0,6.0,38,0.00,,,0.00,weatherlink.com 1.10,2013-03-11 00:09:00,
2013-03-10 20:25:00,54.9,30.0,30.20,SSW,195,4.0,7.0,38,0.00,,,0.00,weatherlink.com 1.10,2013-03-11 00:25:00,
2013-03-10 20:39:00,54.5,29.0,30.20,SSW,198,4.0,9.0,38,0.00,,,0.00,weatherlink.com 1.10,2013-03-11 00:39:00,
2013-03-10 20:54:00,53.9,29.0,30.20,South,177,4.0,7.0,38,0.00,,,0.00,weatherlink.com 1.10,2013-03-11 00:54:00,
2013-03-10 21:09:00,53.6,29.0,30.20,SSE,155,4.0,8.0,39,0.00,,,0.00,weatherlink.com 1.10,2013-03-11 01:09:00,
2013-03-10 21:24:00,53.2,30.0,30.20,SSE,164,2.0,6.0,41,0.00,,,0.00,weatherlink.com 1.10,2013-03-11 01:24:00,
2013-03-10 21:39:00,52.8,29.0,30.20,SSE,160,4.0,6.0,40,0.00,,,0.00,weatherlink.com 1.10,2013-03-11 01:39:00,
2013-03-10 21:54:00,51.9,29.0,30.20,SE,134,5.0,6.0,42,0.00,,,0.00,weatherlink.com 1.10,2013-03-11 01:54:00,
2013-03-10 22:09:00,53.1,27.0,30.20,South,170,3.0,8.0,37,0.00,,,0.00,weatherlink.com 1.10,2013-03-11 02:09:00,
2013-03-10 22:24:00,53.2,27.0,30.20,WSW,252,3.0,8.0,37,0.00,,,0.00,weatherlink.com 1.10,2013-03-11 02:24:00,
2013-03-10 22:39:00,52.9,26.0,30.20,SSW,198,3.0,7.0,36,0.00,,,0.00,weatherlink.com 1.10,2013-03-11 02:39:00,
2013-03-10 22:54:00,53.0,26.0,30.19,SSW,195,4.0,8.0,35,0.00,,,0.00,weatherlink.com 1.10,2013-03-11 02:54:00,
2013-03-10 23:09:00,52.7,26.0,30.20,SSW,194,6.0,9.0,36,0.00,,,0.00,weatherlink.com 1.10,2013-03-11 03:09:00,
2013-03-10 23:24:00,52.2,26.0,30.19,SSE,159,3.0,7.0,37,0.00,,,0.00,weatherlink.com 1.10,2013-03-11 03:24:00,
2013-03-10 23:39:00,51.9,27.0,30.18,SSW,204,3.0,6.0,38,0.00,,,0.00,weatherlink.com 1.10,2013-03-11 03:39:00,
2013-03-10 23:54:00,51.4,26.0,30.18,South,173,2.0,6.0,38,0.00,,,0.00,weatherlink.com 1.10,2013-03-11 03:54:00,